createdAt,value
2023-06-20T00:00:26.934Z,14.50
2023-06-20T00:05:28.692Z,13.80
2023-06-20T00:10:30.436Z,14.05
2023-06-20T00:15:32.621Z,13.82
2023-06-20T00:20:34.321Z,14.30
2023-06-20T00:25:35.960Z,14.05
2023-06-20T00:30:37.678Z,13.48
2023-06-20T00:35:39.480Z,14.88
2023-06-20T00:40:41.134Z,14.32
2023-06-20T00:45:43.050Z,15.27
2023-06-20T00:50:45.104Z,14.55
2023-06-20T00:55:47.837Z,13.98
2023-06-20T01:00:49.541Z,16.00
2023-06-20T01:06:05.643Z,15.35
2023-06-20T01:11:39.709Z,14.95
2023-06-20T01:16:52.101Z,15.13
2023-06-20T01:22:01.324Z,14.95
2023-06-20T01:27:09.912Z,14.90
2023-06-20T01:32:16.794Z,16.13
2023-06-20T01:37:23.421Z,15.95
2023-06-20T01:42:27.725Z,15.48
2023-06-20T01:47:31.764Z,14.88
2023-06-20T01:52:36.465Z,15.07
2023-06-20T01:57:38.863Z,16.05
2023-06-20T02:02:41.574Z,16.02
2023-06-20T02:07:45.686Z,14.75
2023-06-20T02:12:50.480Z,15.48
2023-06-20T02:17:53.938Z,18.23
2023-06-20T02:22:57.017Z,16.63
2023-06-20T02:28:00.281Z,15.13
2023-06-20T02:33:06.427Z,17.05
2023-06-20T02:38:09.003Z,16.27
2023-06-20T02:43:10.720Z,16.08
2023-06-20T02:48:31.010Z,16.20
2023-06-20T02:53:47.223Z,15.52
2023-06-20T02:58:55.577Z,16.77
2023-06-20T03:04:02.688Z,14.57
2023-06-20T03:09:05.803Z,16.35
2023-06-20T03:14:13.767Z,16.10
2023-06-20T03:19:16.004Z,15.52
2023-06-20T03:24:18.687Z,15.05
2023-06-20T03:29:20.495Z,16.23
2023-06-20T03:34:22.286Z,15.35
2023-06-20T03:39:23.968Z,15.38
2023-06-20T03:44:26.326Z,13.88
2023-06-20T03:49:28.083Z,15.38
2023-06-20T03:54:30.263Z,12.68
2023-06-20T03:59:33.916Z,13.50
2023-06-20T04:04:35.705Z,13.10
2023-06-20T04:09:37.443Z,13.00
2023-06-20T04:14:39.272Z,13.18
2023-06-20T04:19:40.966Z,11.77
2023-06-20T04:24:42.750Z,13.23
2023-06-20T04:29:44.479Z,13.15
2023-06-20T04:34:47.879Z,13.98
2023-06-20T04:39:50.208Z,12.77
2023-06-20T04:44:52.521Z,13.45
2023-06-20T04:49:54.196Z,12.98
2023-06-20T04:55:03.031Z,10.98
2023-06-20T05:00:08.892Z,12.40
2023-06-20T05:05:12.040Z,11.32
2023-06-20T05:10:14.530Z,10.38
2023-06-20T05:15:16.207Z,10.88
2023-06-20T05:20:17.935Z,10.73
2023-06-20T05:25:19.771Z,11.25
2023-06-20T05:30:21.421Z,11.23
2023-06-20T05:35:23.245Z,11.10
2023-06-20T05:40:25.202Z,10.95
2023-06-20T05:45:27.093Z,10.68
2023-06-20T05:50:29.105Z,11.32
2023-06-20T05:55:30.952Z,11.38
2023-06-20T06:00:34.210Z,10.90
2023-06-20T06:05:35.912Z,11.65
2023-06-20T06:10:38.253Z,11.38
2023-06-20T06:15:43.065Z,11.88
2023-06-20T06:20:52.553Z,11.13
2023-06-20T06:25:54.394Z,11.27
2023-06-20T06:31:00.436Z,10.35
2023-06-20T06:36:02.556Z,11.18
2023-06-20T06:41:04.655Z,10.15
2023-06-20T06:46:06.482Z,10.52
2023-06-20T06:51:08.588Z,10.13
2023-06-20T06:56:10.229Z,10.07
2023-06-20T07:01:11.960Z,10.65
2023-06-20T07:06:13.618Z,10.25
2023-06-20T07:11:15.285Z,11.30
2023-06-20T07:16:17.113Z,11.00
2023-06-20T07:21:18.835Z,11.30
2023-06-20T07:26:20.486Z,10.30
2023-06-20T07:31:22.418Z,17.83
2023-06-20T07:36:24.340Z,11.02
2023-06-20T07:41:25.996Z,10.00
2023-06-20T07:46:27.741Z,10.55
2023-06-20T07:51:31.618Z,10.18
2023-06-20T07:56:33.390Z,10.07
2023-06-20T08:01:35.183Z,9.68
2023-06-20T08:06:37.251Z,9.45
2023-06-20T08:11:39.353Z,9.82
2023-06-20T08:16:41.156Z,10.48
2023-06-20T08:21:43.042Z,10.10
2023-06-20T08:26:44.827Z,8.52
2023-06-20T08:31:47.829Z,8.23
2023-06-20T08:36:51.402Z,8.43
2023-06-20T08:41:53.369Z,7.40
2023-06-20T08:46:58.619Z,7.50
2023-06-20T08:52:10.038Z,7.13
2023-06-20T08:57:12.505Z,5.85
2023-06-20T09:02:14.487Z,6.90
2023-06-20T09:07:20.151Z,6.45
2023-06-20T09:12:22.051Z,6.03
2023-06-20T09:17:23.797Z,6.30
2023-06-20T09:22:26.584Z,5.55
2023-06-20T09:27:34.467Z,4.88
2023-06-20T09:32:38.659Z,5.78
2023-06-20T09:37:40.320Z,6.40
2023-06-20T09:42:43.589Z,6.18
2023-06-20T09:47:46.146Z,5.82
2023-06-20T09:52:56.307Z,5.38
2023-06-20T09:58:01.105Z,6.72
2023-06-20T10:03:07.920Z,6.72
2023-06-20T10:08:09.992Z,6.50
2023-06-20T10:13:13.223Z,6.10
2023-06-20T10:18:36.425Z,5.95
2023-06-20T10:23:39.720Z,7.18
2023-06-20T10:28:42.647Z,5.85
2023-06-20T10:33:46.712Z,7.40
2023-06-20T10:38:54.416Z,7.18
2023-06-20T10:44:03.225Z,6.78
2023-06-20T10:49:05.678Z,7.22
2023-06-20T10:54:11.341Z,7.47
2023-06-20T10:59:15.096Z,7.70
2023-06-20T11:04:18.282Z,7.43
2023-06-20T11:09:26.939Z,7.18
2023-06-20T11:14:28.630Z,6.90
2023-06-20T11:19:37.340Z,7.38
2023-06-20T11:24:39.643Z,6.65
2023-06-20T11:29:41.441Z,7.15
2023-06-20T11:34:57.673Z,6.47
2023-06-20T11:40:00.133Z,8.07
2023-06-20T11:45:12.156Z,8.52
2023-06-20T11:50:24.623Z,7.30
2023-06-20T11:55:45.765Z,7.53
2023-06-20T12:00:58.588Z,7.00
2023-06-20T12:06:00.298Z,6.43
2023-06-20T12:11:04.007Z,7.47
2023-06-20T12:16:06.300Z,6.97
2023-06-20T12:21:08.228Z,6.93
2023-06-20T12:26:10.374Z,5.88
2023-06-20T12:31:13.300Z,7.60
2023-06-20T12:36:16.766Z,6.45
2023-06-20T12:41:18.837Z,5.97
2023-06-20T12:46:20.516Z,6.18
2023-06-20T12:51:22.586Z,6.57
2023-06-20T12:56:24.497Z,7.00
2023-06-20T13:01:26.309Z,7.20
2023-06-20T13:06:28.098Z,6.97
2023-06-20T13:11:29.823Z,7.55
2023-06-20T13:16:33.422Z,8.23
2023-06-20T13:21:35.759Z,8.23
2023-06-20T13:26:37.438Z,8.60
2023-06-20T13:31:39.146Z,9.50
2023-06-20T13:36:40.900Z,9.55
2023-06-20T13:41:42.607Z,9.00
2023-06-20T13:46:44.508Z,9.18
2023-06-20T13:51:46.539Z,8.98
2023-06-20T13:56:48.272Z,8.93
2023-06-20T14:01:50.032Z,9.57
2023-06-20T14:06:52.357Z,9.32
2023-06-20T14:11:54.030Z,9.10
2023-06-20T14:16:56.516Z,9.05
2023-06-20T14:21:58.199Z,9.30
2023-06-20T14:27:00.017Z,9.13
2023-06-20T14:32:01.695Z,8.93
2023-06-20T14:37:03.595Z,9.55
2023-06-20T14:42:05.571Z,8.32
2023-06-20T14:47:07.751Z,8.90
2023-06-20T14:52:09.547Z,8.38
2023-06-20T14:57:11.491Z,9.25
2023-06-20T15:02:13.204Z,9.40
2023-06-20T15:07:15.105Z,9.07
2023-06-20T15:12:16.784Z,9.02
2023-06-20T15:17:18.616Z,9.25
2023-06-20T15:22:20.280Z,10.18
2023-06-20T15:27:21.929Z,9.43
2023-06-20T15:32:23.645Z,9.60
2023-06-20T15:37:25.368Z,9.52
2023-06-20T15:42:27.193Z,9.45
2023-06-20T15:47:29.331Z,8.55
2023-06-20T15:52:31.273Z,8.88
2023-06-20T15:57:32.951Z,10.20
2023-06-20T16:02:34.761Z,9.93
2023-06-20T16:07:36.494Z,11.23
2023-06-20T16:12:39.134Z,10.07
2023-06-20T16:17:40.938Z,10.32
2023-06-20T16:22:42.962Z,10.77
2023-06-20T16:27:45.149Z,9.93
2023-06-20T16:32:47.059Z,10.30
2023-06-20T16:37:49.173Z,11.20
2023-06-20T16:42:50.918Z,10.13
2023-06-20T16:47:53.101Z,10.65
2023-06-20T16:52:54.875Z,10.07
2023-06-20T16:57:56.540Z,10.30
2023-06-20T17:02:58.308Z,10.07
2023-06-20T17:07:59.991Z,11.32
2023-06-20T17:13:01.668Z,11.68
2023-06-20T17:18:03.631Z,11.15
2023-06-20T17:23:05.365Z,10.93
2023-06-20T17:28:07.073Z,10.18
2023-06-20T17:33:08.827Z,10.70
2023-06-20T17:38:10.496Z,11.10
2023-06-20T17:43:12.187Z,9.85
2023-06-20T17:48:13.910Z,10.90
2023-06-20T17:53:15.703Z,10.43
2023-06-20T17:58:17.348Z,11.00
2023-06-20T18:03:19.531Z,10.52
2023-06-20T18:08:22.432Z,9.82
2023-06-20T18:13:24.245Z,10.70
2023-06-20T18:18:25.882Z,11.02
2023-06-20T18:23:27.562Z,10.68
2023-06-20T18:28:29.191Z,10.85
2023-06-20T18:33:30.885Z,10.48
2023-06-20T18:38:33.331Z,10.43
2023-06-20T18:43:35.033Z,10.63
2023-06-20T18:48:36.719Z,10.50
2023-06-20T18:53:39.236Z,10.45
2023-06-20T18:58:40.881Z,10.70
2023-06-20T19:03:42.776Z,10.55
2023-06-20T19:08:44.511Z,10.63
2023-06-20T19:13:46.364Z,11.85
2023-06-20T19:18:48.080Z,10.98
2023-06-20T19:23:52.329Z,11.30
2023-06-20T19:28:54.089Z,12.05
2023-06-20T19:33:55.871Z,11.60
2023-06-20T19:38:57.501Z,12.63
2023-06-20T19:43:59.216Z,12.38
2023-06-20T19:49:02.424Z,12.95
2023-06-20T19:54:04.320Z,12.90
2023-06-20T19:59:06.009Z,13.73
2023-06-20T20:04:07.880Z,13.18
2023-06-20T20:09:09.793Z,13.95
2023-06-20T20:14:11.456Z,13.30
2023-06-20T20:19:13.273Z,13.48
2023-06-20T20:24:15.929Z,14.98
2023-06-20T20:29:18.414Z,13.68
2023-06-20T20:34:20.060Z,13.18
2023-06-20T20:39:21.732Z,14.68
2023-06-20T20:44:24.825Z,15.02
2023-06-20T20:49:26.518Z,13.77
2023-06-20T20:54:28.174Z,14.27
2023-06-20T20:59:29.825Z,14.15
2023-06-20T21:04:31.544Z,14.55
2023-06-20T21:09:33.189Z,15.35
2023-06-20T21:14:34.934Z,15.45
2023-06-20T21:19:36.580Z,15.25
2023-06-20T21:24:38.431Z,15.60
2023-06-20T21:29:40.136Z,15.77
2023-06-20T21:34:41.788Z,16.38
2023-06-20T21:39:43.882Z,17.27
2023-06-20T21:44:45.558Z,15.48
2023-06-20T21:49:47.455Z,15.38
2023-06-20T21:54:49.116Z,15.15
2023-06-20T21:59:50.913Z,16.10
2023-06-20T22:04:52.566Z,17.65
2023-06-20T22:10:03.137Z,17.67
2023-06-20T22:15:07.003Z,16.95
2023-06-20T22:20:12.316Z,17.30
2023-06-20T22:25:14.114Z,17.17
2023-06-20T22:30:15.799Z,17.50
2023-06-20T22:35:17.569Z,16.77
2023-06-20T22:40:19.212Z,16.88
2023-06-20T22:45:20.941Z,18.85
2023-06-20T22:50:23.565Z,17.35
2023-06-20T22:55:25.328Z,18.83
2023-06-20T23:00:27.173Z,19.20
2023-06-20T23:05:29.190Z,18.45
2023-06-20T23:10:31.268Z,18.33
2023-06-20T23:15:33.070Z,18.20
2023-06-20T23:20:38.328Z,17.77
2023-06-20T23:25:41.620Z,17.35
2023-06-20T23:30:43.517Z,18.15
2023-06-20T23:35:46.001Z,16.38
2023-06-20T23:40:47.925Z,19.55
2023-06-20T23:45:49.761Z,18.70
2023-06-20T23:50:52.309Z,19.73
2023-06-20T23:55:54.957Z,17.48
